sensor_id;sensor_type;location;lat;lon;timestamp;temperature;humidity
43607;DHT22;29197;44.788;10.366;2023-08-21T03:04:30;28.80;99.90
43607;DHT22;29197;44.788;10.366;2023-08-21T03:07:20;28.50;99.90
43607;DHT22;29197;44.788;10.366;2023-08-21T03:10:09;28.30;99.90
43607;DHT22;29197;44.788;10.366;2023-08-21T03:12:58;28.40;99.90
43607;DHT22;29197;44.788;10.366;2023-08-21T03:15:46;28.30;99.90
43607;DHT22;29197;44.788;10.366;2023-08-21T03:18:54;28.30;99.90
43607;DHT22;29197;44.788;10.366;2023-08-21T03:21:43;28.30;99.90
43607;DHT22;29197;44.788;10.366;2023-08-21T03:24:33;28.40;99.90
43607;DHT22;29197;44.788;10.366;2023-08-21T03:27:22;28.30;99.90
43607;DHT22;29197;44.788;10.366;2023-08-21T03:30:11;28.20;99.90
43607;DHT22;29197;44.788;10.366;2023-08-21T03:33:02;28.20;99.90
43607;DHT22;29197;44.788;10.366;2023-08-21T03:35:53;28.20;99.90
43607;DHT22;29197;44.788;10.366;2023-08-21T03:38:43;28.10;99.90
43607;DHT22;29197;44.788;10.366;2023-08-21T03:41:33;28.20;99.90
43607;DHT22;29197;44.788;10.366;2023-08-21T03:44:21;28.30;99.90
43607;DHT22;29197;44.788;10.366;2023-08-21T03:47:10;28.30;99.90
43607;DHT22;29197;44.788;10.366;2023-08-21T03:50:01;28.40;99.90
43607;DHT22;29197;44.788;10.366;2023-08-21T03:52:49;28.40;99.90
43607;DHT22;29197;44.788;10.366;2023-08-21T03:55:38;28.50;99.90
43607;DHT22;29197;44.788;10.366;2023-08-21T03:58:28;28.50;99.90
43607;DHT22;29197;44.788;10.366;2023-08-21T04:01:16;28.50;99.90
43607;DHT22;29197;44.788;10.366;2023-08-21T04:04:05;28.50;99.90
43607;DHT22;29197;44.788;10.366;2023-08-21T04:06:53;28.50;99.90
43607;DHT22;29197;44.788;10.366;2023-08-21T04:09:42;28.50;99.90
43607;DHT22;29197;44.788;10.366;2023-08-21T04:12:30;28.50;99.90
43607;DHT22;29197;44.788;10.366;2023-08-21T04:15:20;28.50;99.90
43607;DHT22;29197;44.788;10.366;2023-08-21T04:18:09;28.50;99.90
43607;DHT22;29197;44.788;10.366;2023-08-21T04:20:57;28.50;99.90
43607;DHT22;29197;44.788;10.366;2023-08-21T04:23:46;28.40;99.90
43607;DHT22;29197;44.788;10.366;2023-08-21T04:26:35;28.40;99.90
43607;DHT22;29197;44.788;10.366;2023-08-21T04:29:23;28.30;99.90
43607;DHT22;29197;44.788;10.366;2023-08-21T04:32:13;28.30;99.90
43607;DHT22;29197;44.788;10.366;2023-08-21T04:35:02;28.40;99.90
43607;DHT22;29197;44.788;10.366;2023-08-21T04:37:52;28.30;99.90
43607;DHT22;29197;44.788;10.366;2023-08-21T04:40:40;28.30;99.90
43607;DHT22;29197;44.788;10.366;2023-08-21T04:43:29;28.30;99.90
43607;DHT22;29197;44.788;10.366;2023-08-21T04:46:17;28.20;99.90
43607;DHT22;29197;44.788;10.366;2023-08-21T04:49:08;28.20;99.90
43607;DHT22;29197;44.788;10.366;2023-08-21T04:51:57;28.20;99.90
43607;DHT22;29197;44.788;10.366;2023-08-21T04:54:46;28.20;99.90
43607;DHT22;29197;44.788;10.366;2023-08-21T04:57:34;28.20;99.90
43607;DHT22;29197;44.788;10.366;2023-08-21T05:00:23;28.10;99.90
43607;DHT22;29197;44.788;10.366;2023-08-21T05:03:12;28.10;99.90
43607;DHT22;29197;44.788;10.366;2023-08-21T05:06:02;28.10;99.90
43607;DHT22;29197;44.788;10.366;2023-08-21T05:08:50;28.20;99.90
43607;DHT22;29197;44.788;10.366;2023-08-21T05:11:39;28.20;99.90
43607;DHT22;29197;44.788;10.366;2023-08-21T05:14:27;28.20;99.90
43607;DHT22;29197;44.788;10.366;2023-08-21T05:17:16;28.20;99.90
43607;DHT22;29197;44.788;10.366;2023-08-21T05:20:05;28.20;99.90
43607;DHT22;29197;44.788;10.366;2023-08-21T05:22:55;28.20;99.90
43607;DHT22;29197;44.788;10.366;2023-08-21T05:25:45;28.20;99.90
43607;DHT22;29197;44.788;10.366;2023-08-21T05:28:33;28.30;99.90
43607;DHT22;29197;44.788;10.366;2023-08-21T05:31:22;28.30;99.90
43607;DHT22;29197;44.788;10.366;2023-08-21T05:34:11;28.30;99.90
43607;DHT22;29197;44.788;10.366;2023-08-21T05:36:59;28.30;99.90
43607;DHT22;29197;44.788;10.366;2023-08-21T05:39:49;28.20;99.90
43607;DHT22;29197;44.788;10.366;2023-08-21T05:42:38;28.30;99.90
43607;DHT22;29197;44.788;10.366;2023-08-21T05:45:27;28.20;99.90
43607;DHT22;29197;44.788;10.366;2023-08-21T05:48:15;28.20;99.90
43607;DHT22;29197;44.788;10.366;2023-08-21T05:51:05;28.20;99.90
43607;DHT22;29197;44.788;10.366;2023-08-21T05:53:53;28.10;99.90
43607;DHT22;29197;44.788;10.366;2023-08-21T05:56:43;28.20;99.90
43607;DHT22;29197;44.788;10.366;2023-08-21T05:59:32;28.30;99.90
43607;DHT22;29197;44.788;10.366;2023-08-21T06:02:21;28.40;99.90
43607;DHT22;29197;44.788;10.366;2023-08-21T06:05:10;28.40;99.90
43607;DHT22;29197;44.788;10.366;2023-08-21T06:07:59;28.40;99.90
43607;DHT22;29197;44.788;10.366;2023-08-21T06:10:51;28.40;99.90
43607;DHT22;29197;44.788;10.366;2023-08-21T06:13:41;28.40;99.90
43607;DHT22;29197;44.788;10.366;2023-08-21T06:16:30;28.40;99.90
43607;DHT22;29197;44.788;10.366;2023-08-21T06:19:18;28.50;99.90
43607;DHT22;29197;44.788;10.366;2023-08-21T06:22:07;28.60;99.90
43607;DHT22;29197;44.788;10.366;2023-08-21T06:24:56;28.60;99.90
43607;DHT22;29197;44.788;10.366;2023-08-21T06:27:44;28.50;99.90
43607;DHT22;29197;44.788;10.366;2023-08-21T06:30:47;28.50;99.90
43607;DHT22;29197;44.788;10.366;2023-08-21T06:33:35;28.50;99.90
43607;DHT22;29197;44.788;10.366;2023-08-21T06:36:24;28.60;99.90
43607;DHT22;29197;44.788;10.366;2023-08-21T06:39:13;28.70;99.90
43607;DHT22;29197;44.788;10.366;2023-08-21T06:42:01;28.80;99.90
43607;DHT22;29197;44.788;10.366;2023-08-21T06:44:50;28.90;99.90
43607;DHT22;29197;44.788;10.366;2023-08-21T06:47:40;28.90;99.90
43607;DHT22;29197;44.788;10.366;2023-08-21T06:50:29;28.90;99.90
43607;DHT22;29197;44.788;10.366;2023-08-21T06:53:18;29.00;99.90
43607;DHT22;29197;44.788;10.366;2023-08-21T06:56:07;29.10;99.90
43607;DHT22;29197;44.788;10.366;2023-08-21T06:58:55;29.10;99.90
43607;DHT22;29197;44.788;10.366;2023-08-21T07:01:44;29.30;99.90
43607;DHT22;29197;44.788;10.366;2023-08-21T07:04:34;29.40;99.90
43607;DHT22;29197;44.788;10.366;2023-08-21T07:07:22;29.50;99.90
43607;DHT22;29197;44.788;10.366;2023-08-21T07:10:12;29.70;99.90
43607;DHT22;29197;44.788;10.366;2023-08-21T07:13:00;29.70;99.90
43607;DHT22;29197;44.788;10.366;2023-08-21T07:15:52;29.80;99.90
43607;DHT22;29197;44.788;10.366;2023-08-21T07:18:40;29.90;99.90
43607;DHT22;29197;44.788;10.366;2023-08-21T07:21:30;29.90;99.90
43607;DHT22;29197;44.788;10.366;2023-08-21T07:24:21;30.00;99.90
43607;DHT22;29197;44.788;10.366;2023-08-21T07:27:09;30.20;99.90
43607;DHT22;29197;44.788;10.366;2023-08-21T07:29:58;30.30;99.90
43607;DHT22;29197;44.788;10.366;2023-08-21T07:32:46;30.40;99.90
43607;DHT22;29197;44.788;10.366;2023-08-21T07:35:35;30.60;99.90
43607;DHT22;29197;44.788;10.366;2023-08-21T07:38:25;30.70;99.90
43607;DHT22;29197;44.788;10.366;2023-08-21T07:41:14;30.90;99.90
43607;DHT22;29197;44.788;10.366;2023-08-21T07:44:02;31.00;99.90
43607;DHT22;29197;44.788;10.366;2023-08-21T07:46:51;31.10;99.90
43607;DHT22;29197;44.788;10.366;2023-08-21T07:49:39;31.10;99.90
43607;DHT22;29197;44.788;10.366;2023-08-21T07:52:28;31.20;99.90
43607;DHT22;29197;44.788;10.366;2023-08-21T07:58:07;31.40;99.90
43607;DHT22;29197;44.788;10.366;2023-08-21T08:00:55;31.50;99.90
43607;DHT22;29197;44.788;10.366;2023-08-21T08:03:44;31.60;99.90
43607;DHT22;29197;44.788;10.366;2023-08-21T08:06:32;31.60;99.90
43607;DHT22;29197;44.788;10.366;2023-08-21T08:09:21;31.60;99.90
43607;DHT22;29197;44.788;10.366;2023-08-21T08:12:11;31.60;99.90
43607;DHT22;29197;44.788;10.366;2023-08-21T08:14:59;31.50;99.90
43607;DHT22;29197;44.788;10.366;2023-08-21T08:17:49;31.60;99.90
43607;DHT22;29197;44.788;10.366;2023-08-21T08:20:40;31.60;99.90
43607;DHT22;29197;44.788;10.366;2023-08-21T08:23:29;31.60;99.90
43607;DHT22;29197;44.788;10.366;2023-08-21T08:26:17;31.60;99.90
43607;DHT22;29197;44.788;10.366;2023-08-21T08:29:07;31.60;99.90
43607;DHT22;29197;44.788;10.366;2023-08-21T08:31:56;31.70;99.90
43607;DHT22;29197;44.788;10.366;2023-08-21T08:34:44;31.70;99.90
43607;DHT22;29197;44.788;10.366;2023-08-21T08:37:34;31.90;99.90
43607;DHT22;29197;44.788;10.366;2023-08-21T08:40:22;31.90;99.90
43607;DHT22;29197;44.788;10.366;2023-08-21T08:43:11;32.00;99.90
43607;DHT22;29197;44.788;10.366;2023-08-21T08:46:02;32.10;99.90
43607;DHT22;29197;44.788;10.366;2023-08-21T08:48:51;32.10;99.90
43607;DHT22;29197;44.788;10.366;2023-08-21T08:51:40;32.20;99.90
43607;DHT22;29197;44.788;10.366;2023-08-21T08:57:19;32.20;99.90
43607;DHT22;29197;44.788;10.366;2023-08-21T09:00:08;32.30;99.90
43607;DHT22;29197;44.788;10.366;2023-08-21T09:14:14;33.10;99.90
43607;DHT22;29197;44.788;10.366;2023-08-21T09:17:03;32.70;99.90
43607;DHT22;29197;44.788;10.366;2023-08-21T09:19:54;32.80;99.90
43607;DHT22;29197;44.788;10.366;2023-08-21T09:22:53;32.80;99.90
43607;DHT22;29197;44.788;10.366;2023-08-21T09:25:44;32.80;99.90
43607;DHT22;29197;44.788;10.366;2023-08-21T09:56:51;33.30;99.90
43607;DHT22;29197;44.788;10.366;2023-08-21T09:59:40;33.40;99.90
43607;DHT22;29197;44.788;10.366;2023-08-21T10:02:30;33.50;99.90
43607;DHT22;29197;44.788;10.366;2023-08-21T10:05:19;33.50;99.90
43607;DHT22;29197;44.788;10.366;2023-08-21T10:08:09;33.50;99.90
43607;DHT22;29197;44.788;10.366;2023-08-21T10:13:51;33.70;99.90
43607;DHT22;29197;44.788;10.366;2023-08-21T10:19:33;34.00;99.90
43607;DHT22;29197;44.788;10.366;2023-08-21T10:22:43;34.00;99.90
43607;DHT22;29197;44.788;10.366;2023-08-21T10:25:41;34.10;99.90
43607;DHT22;29197;44.788;10.366;2023-08-21T10:28:50;34.00;99.90
43607;DHT22;29197;44.788;10.366;2023-08-21T10:31:40;34.00;99.90
43607;DHT22;29197;44.788;10.366;2023-08-21T10:34:33;34.10;99.90
43607;DHT22;29197;44.788;10.366;2023-08-21T10:37:21;34.40;99.90
43607;DHT22;29197;44.788;10.366;2023-08-21T10:40:12;34.40;99.90
43607;DHT22;29197;44.788;10.366;2023-08-21T10:46:20;34.50;99.90
43607;DHT22;29197;44.788;10.366;2023-08-21T10:51:58;34.70;99.90
43607;DHT22;29197;44.788;10.366;2023-08-21T10:54:47;34.90;99.90
43607;DHT22;29197;44.788;10.366;2023-08-21T10:57:36;34.90;99.90
43607;DHT22;29197;44.788;10.366;2023-08-21T11:00:24;35.10;99.90
43607;DHT22;29197;44.788;10.366;2023-08-21T11:03:15;35.20;99.90
43607;DHT22;29197;44.788;10.366;2023-08-21T11:06:05;35.20;99.90
43607;DHT22;29197;44.788;10.366;2023-08-21T11:08:54;35.40;99.90
43607;DHT22;29197;44.788;10.366;2023-08-21T11:11:43;35.40;99.90
43607;DHT22;29197;44.788;10.366;2023-08-21T11:14:32;35.50;99.90
43607;DHT22;29197;44.788;10.366;2023-08-21T11:17:21;35.60;99.90
43607;DHT22;29197;44.788;10.366;2023-08-21T11:20:12;35.70;99.90
43607;DHT22;29197;44.788;10.366;2023-08-21T11:25:52;36.00;99.90
43607;DHT22;29197;44.788;10.366;2023-08-21T11:28:53;36.20;99.90
43607;DHT22;29197;44.788;10.366;2023-08-21T11:31:45;36.30;99.90
43607;DHT22;29197;44.788;10.366;2023-08-21T11:34:35;36.50;99.90
43607;DHT22;29197;44.788;10.366;2023-08-21T11:37:26;36.70;99.90
43607;DHT22;29197;44.788;10.366;2023-08-21T11:40:15;36.80;99.90
43607;DHT22;29197;44.788;10.366;2023-08-21T11:43:04;37.00;99.90
43607;DHT22;29197;44.788;10.366;2023-08-21T11:48:45;37.40;99.90
43607;DHT22;29197;44.788;10.366;2023-08-21T11:57:23;37.90;99.90
43607;DHT22;29197;44.788;10.366;2023-08-21T12:03:01;38.10;97.80
43607;DHT22;29197;44.788;10.366;2023-08-21T12:05:55;38.20;98.00
43607;DHT22;29197;44.788;10.366;2023-08-21T12:08:43;38.30;97.80
43607;DHT22;29197;44.788;10.366;2023-08-21T12:34:14;38.80;96.00
43607;DHT22;29197;44.788;10.366;2023-08-21T12:37:03;38.90;96.40
43607;DHT22;29197;44.788;10.366;2023-08-21T12:39:53;39.00;95.90
43607;DHT22;29197;44.788;10.366;2023-08-21T12:42:41;39.20;96.00
43607;DHT22;29197;44.788;10.366;2023-08-21T12:45:31;39.20;96.10
43607;DHT22;29197;44.788;10.366;2023-08-21T12:48:20;39.30;95.60
43607;DHT22;29197;44.788;10.366;2023-08-21T12:51:08;39.40;95.30
43607;DHT22;29197;44.788;10.366;2023-08-21T12:53:57;39.40;95.20
43607;DHT22;29197;44.788;10.366;2023-08-21T12:56:45;39.40;94.80
43607;DHT22;29197;44.788;10.366;2023-08-21T12:59:34;39.50;95.10
43607;DHT22;29197;44.788;10.366;2023-08-21T13:02:24;39.50;95.00
43607;DHT22;29197;44.788;10.366;2023-08-21T13:05:14;39.50;95.20
43607;DHT22;29197;44.788;10.366;2023-08-21T13:08:03;39.50;94.40
43607;DHT22;29197;44.788;10.366;2023-08-21T13:10:53;39.50;95.10
43607;DHT22;29197;44.788;10.366;2023-08-21T13:13:41;39.50;95.30
43607;DHT22;29197;44.788;10.366;2023-08-21T13:16:30;39.60;95.20
43607;DHT22;29197;44.788;10.366;2023-08-21T13:19:20;39.60;94.30
43607;DHT22;29197;44.788;10.366;2023-08-21T13:22:08;39.60;94.90
43607;DHT22;29197;44.788;10.366;2023-08-21T13:24:57;39.60;94.90
43607;DHT22;29197;44.788;10.366;2023-08-21T13:27:46;39.60;94.50
43607;DHT22;29197;44.788;10.366;2023-08-21T13:30:34;39.60;94.50
43607;DHT22;29197;44.788;10.366;2023-08-21T13:33:23;39.50;94.70
43607;DHT22;29197;44.788;10.366;2023-08-21T13:36:13;39.60;94.70
43607;DHT22;29197;44.788;10.366;2023-08-21T13:41:53;39.50;94.00
43607;DHT22;29197;44.788;10.366;2023-08-21T13:44:41;39.50;94.30
43607;DHT22;29197;44.788;10.366;2023-08-21T13:47:30;39.60;94.60
43607;DHT22;29197;44.788;10.366;2023-08-21T13:50:19;39.60;94.70
43607;DHT22;29197;44.788;10.366;2023-08-21T13:53:09;39.60;94.40
43607;DHT22;29197;44.788;10.366;2023-08-21T13:55:57;39.50;94.20
43607;DHT22;29197;44.788;10.366;2023-08-21T13:58:46;39.50;94.60
43607;DHT22;29197;44.788;10.366;2023-08-21T14:01:34;39.50;94.50
43607;DHT22;29197;44.788;10.366;2023-08-21T14:04:23;39.50;94.60
43607;DHT22;29197;44.788;10.366;2023-08-21T14:07:12;39.50;94.60
43607;DHT22;29197;44.788;10.366;2023-08-21T14:10:03;39.50;94.20
43607;DHT22;29197;44.788;10.366;2023-08-21T14:12:52;39.60;94.30
43607;DHT22;29197;44.788;10.366;2023-08-21T14:15:41;39.60;94.30
43607;DHT22;29197;44.788;10.366;2023-08-21T14:18:29;39.70;94.50
43607;DHT22;29197;44.788;10.366;2023-08-21T14:21:18;39.70;94.40
43607;DHT22;29197;44.788;10.366;2023-08-21T14:24:07;39.60;94.40
43607;DHT22;29197;44.788;10.366;2023-08-21T14:26:57;39.50;94.40
43607;DHT22;29197;44.788;10.366;2023-08-21T14:29:46;39.50;94.50
43607;DHT22;29197;44.788;10.366;2023-08-21T14:32:34;39.50;94.40
43607;DHT22;29197;44.788;10.366;2023-08-21T14:35:25;39.50;94.60
43607;DHT22;29197;44.788;10.366;2023-08-21T14:38:13;39.50;94.50
43607;DHT22;29197;44.788;10.366;2023-08-21T14:41:02;39.40;94.40
43607;DHT22;29197;44.788;10.366;2023-08-21T14:43:51;39.40;94.30
43607;DHT22;29197;44.788;10.366;2023-08-21T14:46:40;39.40;94.10
43607;DHT22;29197;44.788;10.366;2023-08-21T14:49:29;39.30;94.70
43607;DHT22;29197;44.788;10.366;2023-08-21T14:52:18;39.10;95.00
43607;DHT22;29197;44.788;10.366;2023-08-21T14:55:07;39.10;95.20
43607;DHT22;29197;44.788;10.366;2023-08-21T14:57:56;39.00;95.10
43607;DHT22;29197;44.788;10.366;2023-08-21T15:00:46;39.00;94.80
43607;DHT22;29197;44.788;10.366;2023-08-21T15:03:38;38.90;95.10
43607;DHT22;29197;44.788;10.366;2023-08-21T15:06:26;38.80;95.20
43607;DHT22;29197;44.788;10.366;2023-08-21T15:09:15;38.70;95.00
43607;DHT22;29197;44.788;10.366;2023-08-21T15:12:04;38.60;94.90
43607;DHT22;29197;44.788;10.366;2023-08-21T15:14:53;38.50;95.30
43607;DHT22;29197;44.788;10.366;2023-08-21T15:17:42;38.40;95.50
43607;DHT22;29197;44.788;10.366;2023-08-21T15:20:31;38.40;95.80
43607;DHT22;29197;44.788;10.366;2023-08-21T15:23:19;38.30;95.10
43607;DHT22;29197;44.788;10.366;2023-08-21T15:26:08;38.10;95.10
43607;DHT22;29197;44.788;10.366;2023-08-21T15:28:57;38.00;95.60
43607;DHT22;29197;44.788;10.366;2023-08-21T15:31:45;38.00;96.10
43607;DHT22;29197;44.788;10.366;2023-08-21T15:34:35;38.00;96.50
43607;DHT22;29197;44.788;10.366;2023-08-21T15:37:23;38.00;96.20
43607;DHT22;29197;44.788;10.366;2023-08-21T15:40:12;37.90;96.00
43607;DHT22;29197;44.788;10.366;2023-08-21T15:43:03;37.90;96.30
43607;DHT22;29197;44.788;10.366;2023-08-21T15:45:52;37.80;95.90
43607;DHT22;29197;44.788;10.366;2023-08-21T15:48:41;37.70;95.90
43607;DHT22;29197;44.788;10.366;2023-08-21T15:51:31;37.60;95.70
43607;DHT22;29197;44.788;10.366;2023-08-21T15:54:20;37.50;95.70
43607;DHT22;29197;44.788;10.366;2023-08-21T15:57:09;37.40;95.90
43607;DHT22;29197;44.788;10.366;2023-08-21T15:59:58;37.40;96.00
43607;DHT22;29197;44.788;10.366;2023-08-21T16:02:46;37.40;96.40
43607;DHT22;29197;44.788;10.366;2023-08-21T16:05:35;37.30;96.50
43607;DHT22;29197;44.788;10.366;2023-08-21T16:08:27;37.00;96.10
43607;DHT22;29197;44.788;10.366;2023-08-21T16:11:15;37.10;96.50
43607;DHT22;29197;44.788;10.366;2023-08-21T16:14:04;37.00;96.60
43607;DHT22;29197;44.788;10.366;2023-08-21T16:16:54;36.90;96.60
43607;DHT22;29197;44.788;10.366;2023-08-21T16:19:43;36.90;96.50
43607;DHT22;29197;44.788;10.366;2023-08-21T16:22:33;36.80;96.50
43607;DHT22;29197;44.788;10.366;2023-08-21T16:25:23;36.80;96.80
43607;DHT22;29197;44.788;10.366;2023-08-21T16:28:11;36.70;97.20
43607;DHT22;29197;44.788;10.366;2023-08-21T16:31:00;36.60;97.30
43607;DHT22;29197;44.788;10.366;2023-08-21T16:33:49;36.50;97.20
43607;DHT22;29197;44.788;10.366;2023-08-21T16:36:37;36.40;97.30
43607;DHT22;29197;44.788;10.366;2023-08-21T16:39:26;36.30;97.70
43607;DHT22;29197;44.788;10.366;2023-08-21T16:42:16;36.30;97.80
43607;DHT22;29197;44.788;10.366;2023-08-21T16:45:05;36.30;97.80
43607;DHT22;29197;44.788;10.366;2023-08-21T16:47:53;36.20;97.90
43607;DHT22;29197;44.788;10.366;2023-08-21T16:50:42;36.10;98.20
43607;DHT22;29197;44.788;10.366;2023-08-21T16:53:31;36.00;98.30
43607;DHT22;29197;44.788;10.366;2023-08-21T16:56:19;35.90;98.50
43607;DHT22;29197;44.788;10.366;2023-08-21T16:59:09;35.90;98.70
43607;DHT22;29197;44.788;10.366;2023-08-21T17:01:58;35.80;98.90
43607;DHT22;29197;44.788;10.366;2023-08-21T17:04:46;35.70;99.00
43607;DHT22;29197;44.788;10.366;2023-08-21T17:07:35;35.60;99.10
43607;DHT22;29197;44.788;10.366;2023-08-21T17:10:25;35.50;99.40
43607;DHT22;29197;44.788;10.366;2023-08-21T17:13:18;35.40;99.40
43607;DHT22;29197;44.788;10.366;2023-08-21T17:16:08;35.40;99.60
43607;DHT22;29197;44.788;10.366;2023-08-21T17:18:58;35.30;99.60
43607;DHT22;29197;44.788;10.366;2023-08-21T17:21:46;35.20;99.90
43607;DHT22;29197;44.788;10.366;2023-08-21T17:24:35;35.10;99.90
43607;DHT22;29197;44.788;10.366;2023-08-21T17:27:23;35.10;99.90
43607;DHT22;29197;44.788;10.366;2023-08-21T17:30:13;35.00;99.90
43607;DHT22;29197;44.788;10.366;2023-08-21T17:33:03;34.90;99.90
43607;DHT22;29197;44.788;10.366;2023-08-21T17:35:52;34.90;99.90
43607;DHT22;29197;44.788;10.366;2023-08-21T17:38:40;34.80;99.90
43607;DHT22;29197;44.788;10.366;2023-08-21T17:41:29;34.80;99.90
43607;DHT22;29197;44.788;10.366;2023-08-21T17:44:17;34.80;99.90
43607;DHT22;29197;44.788;10.366;2023-08-21T17:47:06;34.70;99.90
43607;DHT22;29197;44.788;10.366;2023-08-21T17:49:56;34.60;99.90
43607;DHT22;29197;44.788;10.366;2023-08-21T17:52:44;34.60;99.90
43607;DHT22;29197;44.788;10.366;2023-08-21T17:55:34;34.50;99.90
43607;DHT22;29197;44.788;10.366;2023-08-21T17:58:24;34.50;99.90
43607;DHT22;29197;44.788;10.366;2023-08-21T18:01:13;34.40;99.90
43607;DHT22;29197;44.788;10.366;2023-08-21T18:04:02;34.40;99.90
43607;DHT22;29197;44.788;10.366;2023-08-21T18:06:53;34.30;99.90
43607;DHT22;29197;44.788;10.366;2023-08-21T18:09:42;34.30;99.90
43607;DHT22;29197;44.788;10.366;2023-08-21T18:12:30;34.20;99.90
43607;DHT22;29197;44.788;10.366;2023-08-21T18:15:19;34.20;99.90
43607;DHT22;29197;44.788;10.366;2023-08-21T18:23:47;34.00;99.90
43607;DHT22;29197;44.788;10.366;2023-08-21T18:26:35;34.00;99.90
43607;DHT22;29197;44.788;10.366;2023-08-21T18:29:24;33.90;99.90
43607;DHT22;29197;44.788;10.366;2023-08-21T18:32:14;33.80;99.90
43607;DHT22;29197;44.788;10.366;2023-08-21T18:35:03;33.80;99.90
43607;DHT22;29197;44.788;10.366;2023-08-21T18:37:52;33.70;99.90
43607;DHT22;29197;44.788;10.366;2023-08-21T18:40:42;33.70;99.90
43607;DHT22;29197;44.788;10.366;2023-08-21T18:43:31;33.70;99.90
43607;DHT22;29197;44.788;10.366;2023-08-21T18:46:19;33.70;99.90
43607;DHT22;29197;44.788;10.366;2023-08-21T18:49:08;33.60;99.90
43607;DHT22;29197;44.788;10.366;2023-08-21T18:51:57;33.60;99.90
43607;DHT22;29197;44.788;10.366;2023-08-21T18:54:45;33.50;99.90
43607;DHT22;29197;44.788;10.366;2023-08-21T18:57:35;33.50;99.90
43607;DHT22;29197;44.788;10.366;2023-08-21T19:00:25;33.40;99.90
43607;DHT22;29197;44.788;10.366;2023-08-21T19:03:14;33.40;99.90
43607;DHT22;29197;44.788;10.366;2023-08-21T19:06:03;33.40;99.90
43607;DHT22;29197;44.788;10.366;2023-08-21T19:08:51;33.40;99.90
43607;DHT22;29197;44.788;10.366;2023-08-21T19:11:41;33.30;99.90
43607;DHT22;29197;44.788;10.366;2023-08-21T19:14:31;33.20;99.90
43607;DHT22;29197;44.788;10.366;2023-08-21T19:17:20;33.20;99.90
43607;DHT22;29197;44.788;10.366;2023-08-21T19:20:09;33.10;99.90
43607;DHT22;29197;44.788;10.366;2023-08-21T19:22:58;33.10;99.90
43607;DHT22;29197;44.788;10.366;2023-08-21T19:42:47;33.40;99.90
43607;DHT22;29197;44.788;10.366;2023-08-21T20:02:31;33.00;99.90
43607;DHT22;29197;44.788;10.366;2023-08-21T20:05:25;32.70;99.90
43607;DHT22;29197;44.788;10.366;2023-08-21T20:11:03;32.30;99.90
43607;DHT22;29197;44.788;10.366;2023-08-21T20:25:09;32.20;99.90
43607;DHT22;29197;44.788;10.366;2023-08-21T20:30:47;32.00;99.90
43607;DHT22;29197;44.788;10.366;2023-08-21T20:33:37;31.90;99.90
43607;DHT22;29197;44.788;10.366;2023-08-21T20:36:25;31.90;99.90
43607;DHT22;29197;44.788;10.366;2023-08-21T20:39:15;32.00;99.90
43607;DHT22;29197;44.788;10.366;2023-08-21T20:42:05;32.00;99.90
43607;DHT22;29197;44.788;10.366;2023-08-21T20:44:53;32.00;99.90
43607;DHT22;29197;44.788;10.366;2023-08-21T20:56:11;31.70;99.90
43607;DHT22;29197;44.788;10.366;2023-08-21T21:01:49;31.70;99.90
43607;DHT22;29197;44.788;10.366;2023-08-21T21:04:38;31.60;99.90
43607;DHT22;29197;44.788;10.366;2023-08-21T21:07:27;31.40;99.90
43607;DHT22;29197;44.788;10.366;2023-08-21T21:10:16;31.30;99.90
43607;DHT22;29197;44.788;10.366;2023-08-21T21:13:06;31.10;99.90
43607;DHT22;29197;44.788;10.366;2023-08-21T21:15:54;31.10;99.90
43607;DHT22;29197;44.788;10.366;2023-08-21T21:18:43;31.00;99.90
43607;DHT22;29197;44.788;10.366;2023-08-21T21:21:31;30.90;99.90
43607;DHT22;29197;44.788;10.366;2023-08-21T21:24:20;30.80;99.90
43607;DHT22;29197;44.788;10.366;2023-08-21T21:27:09;30.50;99.90
43607;DHT22;29197;44.788;10.366;2023-08-21T21:29:59;30.40;99.90
43607;DHT22;29197;44.788;10.366;2023-08-21T21:32:47;30.40;99.90
43607;DHT22;29197;44.788;10.366;2023-08-21T21:35:36;30.20;99.90
43607;DHT22;29197;44.788;10.366;2023-08-21T21:38:24;30.20;99.90
43607;DHT22;29197;44.788;10.366;2023-08-21T21:41:14;30.30;99.90
43607;DHT22;29197;44.788;10.366;2023-08-21T21:44:03;30.30;99.90
43607;DHT22;29197;44.788;10.366;2023-08-21T21:46:53;30.30;99.90
43607;DHT22;29197;44.788;10.366;2023-08-21T21:52:31;29.80;99.90
43607;DHT22;29197;44.788;10.366;2023-08-21T21:55:19;29.90;99.90
43607;DHT22;29197;44.788;10.366;2023-08-21T21:58:09;29.80;99.90
43607;DHT22;29197;44.788;10.366;2023-08-21T22:00:58;29.80;99.90
43607;DHT22;29197;44.788;10.366;2023-08-21T22:03:48;29.90;99.90
43607;DHT22;29197;44.788;10.366;2023-08-21T22:06:37;29.80;99.90
43607;DHT22;29197;44.788;10.366;2023-08-21T22:09:27;29.70;99.90
43607;DHT22;29197;44.788;10.366;2023-08-21T22:12:15;29.80;99.90
43607;DHT22;29197;44.788;10.366;2023-08-21T22:15:04;29.80;99.90
43607;DHT22;29197;44.788;10.366;2023-08-21T22:17:54;29.80;99.90
43607;DHT22;29197;44.788;10.366;2023-08-21T22:37:39;29.80;99.90
43607;DHT22;29197;44.788;10.366;2023-08-21T22:40:28;29.70;99.90
43607;DHT22;29197;44.788;10.366;2023-08-21T22:43:16;29.70;99.90
43607;DHT22;29197;44.788;10.366;2023-08-21T22:46:05;29.50;99.90
43607;DHT22;29197;44.788;10.366;2023-08-21T22:48:53;29.40;99.90
43607;DHT22;29197;44.788;10.366;2023-08-21T22:51:42;29.40;99.90
43607;DHT22;29197;44.788;10.366;2023-08-21T22:54:32;29.40;99.90
43607;DHT22;29197;44.788;10.366;2023-08-21T22:57:20;29.50;99.90
43607;DHT22;29197;44.788;10.366;2023-08-21T23:00:10;29.40;99.90
43607;DHT22;29197;44.788;10.366;2023-08-21T23:02:58;29.40;99.90
43607;DHT22;29197;44.788;10.366;2023-08-21T23:05:53;29.50;99.90
43607;DHT22;29197;44.788;10.366;2023-08-21T23:08:42;29.50;99.90
43607;DHT22;29197;44.788;10.366;2023-08-21T23:11:32;29.50;99.90
43607;DHT22;29197;44.788;10.366;2023-08-21T23:14:21;29.40;99.90
43607;DHT22;29197;44.788;10.366;2023-08-21T23:17:10;29.30;99.90
43607;DHT22;29197;44.788;10.366;2023-08-21T23:19:58;29.40;99.90
43607;DHT22;29197;44.788;10.366;2023-08-21T23:22:47;29.40;99.90
43607;DHT22;29197;44.788;10.366;2023-08-21T23:25:35;29.40;99.90
43607;DHT22;29197;44.788;10.366;2023-08-21T23:39:42;28.70;99.90
43607;DHT22;29197;44.788;10.366;2023-08-21T23:42:30;28.70;99.90
43607;DHT22;29197;44.788;10.366;2023-08-21T23:45:20;28.80;99.90
43607;DHT22;29197;44.788;10.366;2023-08-21T23:48:09;28.90;99.90
43607;DHT22;29197;44.788;10.366;2023-08-21T23:50:57;29.00;99.90